createdAt,value
2023-04-13T00:01:11.623Z,97263.47
2023-04-13T00:03:39.712Z,97282.22
2023-04-13T00:06:22.905Z,97274.72
2023-04-13T00:09:14.230Z,97263.75
2023-04-13T00:12:01.424Z,97259.44
2023-04-13T00:14:48.316Z,97271.47
2023-04-13T00:17:36.000Z,97276.81
2023-04-13T00:20:22.673Z,97241.38
2023-04-13T00:23:09.326Z,97270.19
2023-04-13T00:25:36.436Z,97271.38
2023-04-13T00:28:03.966Z,97262.56
2023-04-13T00:30:30.932Z,97255.66
2023-04-13T00:32:57.849Z,97267.94
2023-04-13T00:35:28.120Z,97257.53
2023-04-13T00:37:55.028Z,97261.69
2023-04-13T00:40:22.022Z,97249.81
2023-04-13T00:42:50.891Z,97251.16
2023-04-13T00:45:18.467Z,97262.63
2023-04-13T00:47:47.057Z,97260.03
2023-04-13T00:50:14.779Z,97252.88
2023-04-13T00:52:43.033Z,97256.81
2023-04-13T00:55:10.116Z,97250.47
2023-04-13T00:57:41.077Z,97256.16
2023-04-13T01:00:09.985Z,97249.53
2023-04-13T01:02:42.314Z,97252.63
2023-04-13T01:05:12.830Z,97250.88
2023-04-13T01:08:43.933Z,97256.66
2023-04-13T01:11:56.094Z,97251.69
2023-04-13T01:15:01.696Z,97252.69
2023-04-13T01:17:56.430Z,97263.44
2023-04-13T01:20:51.761Z,97258.94
2023-04-13T01:23:55.648Z,97257.34
2023-04-13T01:26:22.963Z,97269.81
2023-04-13T01:28:51.530Z,97271.94
2023-04-13T01:31:20.119Z,97262.97
2023-04-13T01:33:48.137Z,97277.81
2023-04-13T01:36:16.178Z,97279.69
2023-04-13T01:38:43.748Z,97283.81
2023-04-13T01:41:10.687Z,97278.09
2023-04-13T01:43:37.949Z,97282.59
2023-04-13T01:46:11.768Z,97277.91
2023-04-13T01:48:52.241Z,97278.41
2023-04-13T01:51:23.206Z,97275.16
2023-04-13T01:53:54.824Z,97274.47
2023-04-13T01:56:23.381Z,97270.53
2023-04-13T01:58:56.646Z,97275.09
2023-04-13T02:01:24.292Z,97274.19
2023-04-13T02:03:52.081Z,97262.66
2023-04-13T02:06:19.609Z,97273.22
2023-04-13T02:08:46.536Z,97272.16
2023-04-13T02:11:13.584Z,97281.75
2023-04-13T02:13:40.495Z,97274.44
2023-04-13T02:16:07.837Z,97273.28
2023-04-13T02:18:35.420Z,97280.91
2023-04-13T02:21:09.729Z,97276.31
2023-04-13T02:23:38.057Z,97268.97
2023-04-13T02:26:07.828Z,97269.25
2023-04-13T02:28:34.812Z,97259.59
2023-04-13T02:31:03.839Z,97255.66
2023-04-13T02:33:31.880Z,97246.09
2023-04-13T02:35:59.814Z,97258.22
2023-04-13T02:38:28.525Z,97256.28
2023-04-13T02:40:56.705Z,97248.56
2023-04-13T02:43:23.667Z,97235.22
2023-04-13T02:45:50.657Z,97180.50
2023-04-13T02:48:17.564Z,97236.94
2023-04-13T02:50:44.457Z,97236.78
2023-04-13T02:53:11.349Z,97237.59
2023-04-13T02:55:39.291Z,97237.59
2023-04-13T02:58:06.845Z,97256.66
2023-04-13T03:00:33.771Z,97242.31
2023-04-13T03:03:03.568Z,97246.66
2023-04-13T03:05:33.824Z,97245.09
2023-04-13T03:08:00.949Z,97253.66
2023-04-13T03:10:27.951Z,97251.22
2023-04-13T03:12:55.106Z,97242.50
2023-04-13T03:15:22.120Z,97244.34
2023-04-13T03:17:49.127Z,97249.94
2023-04-13T03:20:17.166Z,97245.81
2023-04-13T03:22:45.499Z,97243.06
2023-04-13T03:25:12.790Z,97241.13
2023-04-13T03:27:39.802Z,97233.22
2023-04-13T03:30:07.867Z,97248.94
2023-04-13T03:32:35.000Z,97240.22
2023-04-13T03:35:02.153Z,97246.09
2023-04-13T03:37:32.669Z,97237.16
2023-04-13T03:39:59.630Z,97240.28
2023-04-13T03:42:26.748Z,97240.53
2023-04-13T03:44:53.707Z,97229.03
2023-04-13T03:47:21.061Z,97236.88
2023-04-13T03:49:47.994Z,97240.38
2023-04-13T03:52:14.989Z,97248.72
2023-04-13T03:54:41.908Z,97248.94
2023-04-13T03:57:09.039Z,97244.78
2023-04-13T03:59:36.000Z,97253.06
2023-04-13T04:02:03.175Z,97250.22
2023-04-13T04:04:30.300Z,97224.63
2023-04-13T04:06:58.214Z,97249.13
2023-04-13T04:09:25.766Z,97247.66
2023-04-13T04:11:52.658Z,97253.91
2023-04-13T04:14:20.659Z,97252.00
2023-04-13T04:16:47.620Z,97263.56
2023-04-13T04:19:14.666Z,97250.50
2023-04-13T04:21:44.907Z,97257.97
2023-04-13T04:24:12.724Z,97260.91
2023-04-13T04:26:40.459Z,97265.97
2023-04-13T04:29:09.113Z,97270.38
2023-04-13T04:31:43.666Z,97262.00
2023-04-13T04:34:11.883Z,97250.78
2023-04-13T04:36:41.927Z,97255.91
2023-04-13T04:39:10.144Z,97261.06
2023-04-13T04:41:38.035Z,97251.38
2023-04-13T04:44:07.970Z,97244.03
2023-04-13T04:46:38.841Z,97251.69
2023-04-13T04:49:05.847Z,97250.56
2023-04-13T04:51:33.693Z,97253.25
2023-04-13T04:54:02.365Z,97246.19
2023-04-13T04:56:29.547Z,97253.53
2023-04-13T04:58:57.381Z,97246.38
2023-04-13T05:01:26.806Z,97247.88
2023-04-13T05:03:54.219Z,97251.97
2023-04-13T05:06:21.476Z,97257.44
2023-04-13T05:08:48.442Z,97257.88
2023-04-13T05:11:15.547Z,97247.75
2023-04-13T05:13:42.433Z,97264.69
2023-04-13T05:16:10.901Z,97257.94
2023-04-13T05:18:48.461Z,97269.06
2023-04-13T05:21:16.266Z,97254.81
2023-04-13T05:23:43.765Z,97274.66
2023-04-13T05:26:12.440Z,97269.34
2023-04-13T05:28:39.934Z,97282.78
2023-04-13T05:31:09.118Z,97269.06
2023-04-13T05:33:36.193Z,97282.28
2023-04-13T05:36:03.707Z,97274.31
2023-04-13T05:38:31.003Z,97278.44
2023-04-13T05:40:58.954Z,97282.22
2023-04-13T05:43:26.947Z,97271.63
2023-04-13T05:45:54.033Z,97272.97
2023-04-13T05:48:21.700Z,97283.78
2023-04-13T05:50:48.596Z,97273.59
2023-04-13T05:53:15.472Z,97269.47
2023-04-13T05:55:43.355Z,97267.94
2023-04-13T05:58:11.215Z,97247.06
2023-04-13T06:00:39.014Z,97244.81
2023-04-13T06:03:07.661Z,97262.81
2023-04-13T06:05:36.820Z,97272.13
2023-04-13T06:08:04.175Z,97267.41
2023-04-13T06:10:31.615Z,97261.91
2023-04-13T06:12:59.113Z,97271.84
2023-04-13T06:15:26.373Z,97279.47
2023-04-13T06:17:56.240Z,97276.91
2023-04-13T06:20:23.376Z,97276.06
2023-04-13T06:22:50.276Z,97275.03
2023-04-13T06:25:17.265Z,97296.22
2023-04-13T06:27:44.422Z,97270.00
2023-04-13T06:30:12.378Z,97289.16
2023-04-13T06:32:39.519Z,97280.31
2023-04-13T06:35:07.067Z,97286.53
2023-04-13T06:37:37.173Z,97290.72
2023-04-13T06:40:13.057Z,97283.97
2023-04-13T06:42:41.600Z,97288.50
2023-04-13T06:45:12.537Z,97288.56
2023-04-13T06:47:43.571Z,97290.56
2023-04-13T06:50:14.228Z,97291.19
2023-04-13T06:52:46.067Z,97289.53
2023-04-13T06:55:14.299Z,97287.38
2023-04-13T06:57:41.888Z,97289.09
2023-04-13T07:00:25.903Z,97287.84
2023-04-13T07:02:58.466Z,97281.41
2023-04-13T07:05:25.696Z,97285.59
2023-04-13T07:07:52.549Z,97273.47
2023-04-13T07:10:19.560Z,97277.09
2023-04-13T07:12:46.704Z,97279.69
2023-04-13T07:15:13.669Z,97274.63
2023-04-13T07:17:40.769Z,97281.78
2023-04-13T07:20:08.424Z,97283.50
2023-04-13T07:22:35.765Z,97287.66
2023-04-13T07:25:02.923Z,97270.69
2023-04-13T07:27:29.838Z,97287.13
2023-04-13T07:29:57.029Z,97275.13
2023-04-13T07:32:30.328Z,97283.66
2023-04-13T07:35:02.329Z,97278.72
2023-04-13T07:37:29.993Z,97286.38
2023-04-13T07:39:57.000Z,97245.75
2023-04-13T07:42:25.480Z,97280.72
2023-04-13T07:44:56.293Z,97283.75
2023-04-13T07:47:23.366Z,97282.69
2023-04-13T07:49:50.290Z,97273.88
2023-04-13T07:52:17.353Z,97280.00
2023-04-13T07:54:44.304Z,97279.25
2023-04-13T07:57:11.218Z,97273.88
2023-04-13T07:59:38.134Z,97266.34
2023-04-13T08:02:05.884Z,97279.78
2023-04-13T08:04:33.866Z,97276.97
2023-04-13T08:07:05.043Z,97273.53
2023-04-13T08:09:42.554Z,97241.34
2023-04-13T08:12:10.239Z,97285.16
2023-04-13T08:14:37.570Z,97273.75
2023-04-13T08:17:06.357Z,97277.56
2023-04-13T08:19:34.212Z,97286.66
2023-04-13T08:22:01.344Z,97269.59
2023-04-13T08:24:29.132Z,97284.34
2023-04-13T08:26:58.387Z,97284.31
2023-04-13T08:29:26.585Z,97284.72
2023-04-13T08:31:53.763Z,97285.44
2023-04-13T08:34:20.763Z,97288.31
2023-04-13T08:36:48.005Z,97288.81
2023-04-13T08:39:15.160Z,97281.63
2023-04-13T08:41:47.377Z,97297.00
2023-04-13T08:44:15.279Z,97293.84
2023-04-13T08:46:45.178Z,97291.88
2023-04-13T08:49:12.855Z,97289.78
2023-04-13T08:51:42.237Z,97279.47
2023-04-13T08:54:09.151Z,97286.91
2023-04-13T08:56:45.860Z,97286.94
2023-04-13T08:59:15.752Z,97286.28
2023-04-13T09:01:45.548Z,97287.66
2023-04-13T09:04:17.857Z,97292.25
2023-04-13T09:06:48.065Z,97282.84
2023-04-13T09:09:15.680Z,97291.41
2023-04-13T09:11:43.721Z,97285.59
2023-04-13T09:14:10.809Z,97284.59
2023-04-13T09:16:42.379Z,97290.50
2023-04-13T09:19:10.403Z,97288.09
2023-04-13T09:21:41.512Z,97288.38
2023-04-13T09:24:10.015Z,97288.13
2023-04-13T09:26:50.383Z,97279.81
2023-04-13T09:29:19.395Z,97294.88
2023-04-13T09:31:47.778Z,97295.88
2023-04-13T09:34:26.065Z,97289.97
2023-04-13T09:36:54.911Z,97296.03
2023-04-13T09:39:28.595Z,97284.00
2023-04-13T09:41:56.299Z,97295.75
2023-04-13T09:44:31.285Z,97288.09
2023-04-13T09:46:59.415Z,97260.50
2023-04-13T09:49:27.323Z,97282.47
2023-04-13T09:51:54.975Z,97257.97
2023-04-13T09:54:23.002Z,97287.41
2023-04-13T09:56:54.850Z,97276.84
2023-04-13T09:59:25.736Z,97272.06
2023-04-13T10:01:54.124Z,97259.53
2023-04-13T10:04:21.752Z,97212.19
2023-04-13T10:06:49.192Z,97266.69
2023-04-13T10:09:16.314Z,97267.03
2023-04-13T10:11:50.113Z,97265.94
2023-04-13T10:14:22.425Z,97266.22
2023-04-13T10:16:55.628Z,97262.13
2023-04-13T10:19:28.396Z,97271.69
2023-04-13T10:21:56.672Z,97260.47
2023-04-13T10:24:24.250Z,97259.97
2023-04-13T10:26:55.535Z,97263.09
2023-04-13T10:29:30.531Z,97258.50
2023-04-13T10:32:03.557Z,97255.28
2023-04-13T10:34:32.401Z,97260.66
2023-04-13T10:37:04.021Z,97260.16
2023-04-13T10:39:33.699Z,97254.72
2023-04-13T10:42:05.011Z,97251.72
2023-04-13T10:44:45.596Z,97232.28
2023-04-13T10:47:21.158Z,97243.66
2023-04-13T10:49:49.492Z,97248.03
2023-04-13T10:52:17.057Z,97234.66
2023-04-13T10:54:45.308Z,97248.59
2023-04-13T10:57:12.869Z,97249.19
2023-04-13T10:59:55.492Z,97240.28
2023-04-13T11:02:32.442Z,97247.06
2023-04-13T11:05:01.405Z,97242.72
2023-04-13T11:07:28.978Z,97248.75
2023-04-13T11:12:28.721Z,97245.47
2023-04-13T11:14:55.648Z,97255.25
2023-04-13T11:17:22.873Z,97253.34
2023-04-13T11:19:51.636Z,97247.09
2023-04-13T11:22:20.236Z,97246.53
2023-04-13T11:24:51.199Z,97242.72
2023-04-13T11:27:24.496Z,97242.72
2023-04-13T11:30:05.422Z,97249.28
2023-04-13T11:32:34.524Z,97238.34
2023-04-13T11:35:15.305Z,97248.16
2023-04-13T11:37:47.184Z,97255.25
2023-04-13T11:40:17.528Z,97254.44
2023-04-13T11:42:46.524Z,97237.19
2023-04-13T11:45:19.075Z,97248.69
2023-04-13T11:47:48.339Z,97248.88
2023-04-13T11:50:16.773Z,97242.03
2023-04-13T11:52:44.893Z,97241.97
2023-04-13T11:55:22.508Z,97237.13
2023-04-13T11:57:52.871Z,97235.16
2023-04-13T12:00:26.537Z,97234.38
2023-04-13T12:05:28.086Z,97232.22
2023-04-13T12:07:57.444Z,97223.53
2023-04-13T12:10:38.122Z,97218.97
2023-04-13T12:16:02.271Z,97228.50
2023-04-13T12:18:37.447Z,97227.38
2023-04-13T12:21:06.123Z,97231.81
2023-04-13T12:23:33.239Z,97233.72
2023-04-13T12:26:41.239Z,97231.50
2023-04-13T12:28:59.412Z,97230.47
2023-04-13T12:31:33.300Z,97241.34
2023-04-13T12:34:00.548Z,97248.75
2023-04-13T12:36:31.697Z,97252.56
2023-04-13T12:38:59.701Z,97196.59
2023-04-13T12:41:27.352Z,97242.47
2023-04-13T12:43:54.444Z,97243.28
2023-04-13T12:46:21.458Z,97246.84
2023-04-13T12:48:48.936Z,97229.09
2023-04-13T12:51:15.932Z,97240.00
2023-04-13T12:53:42.857Z,97241.66
2023-04-13T12:56:09.951Z,97239.69
2023-04-13T12:58:36.901Z,97236.44
2023-04-13T13:01:04.352Z,97238.06
2023-04-13T13:03:31.410Z,97246.25
2023-04-13T13:05:58.306Z,97238.59
2023-04-13T13:08:25.205Z,97238.63
2023-04-13T13:10:52.193Z,97239.44
2023-04-13T13:13:19.161Z,97236.69
2023-04-13T13:15:46.155Z,97231.78
2023-04-13T13:18:14.041Z,97236.97
2023-04-13T13:20:44.490Z,97239.41
2023-04-13T13:23:12.650Z,97231.09
2023-04-13T13:25:42.397Z,97249.06
2023-04-13T13:28:15.270Z,97247.16
2023-04-13T13:30:43.291Z,97243.44
2023-04-13T13:33:10.204Z,97257.50
2023-04-13T13:35:37.098Z,97252.66
2023-04-13T13:38:04.206Z,97254.75
2023-04-13T13:40:31.352Z,97250.44
2023-04-13T13:42:58.261Z,97248.25
2023-04-13T13:45:25.246Z,97254.53
2023-04-13T13:47:53.847Z,97254.78
2023-04-13T13:50:24.128Z,97261.97
2023-04-13T13:53:02.984Z,97261.22
2023-04-13T13:55:31.874Z,97256.50
2023-04-13T13:58:00.492Z,97257.72
2023-04-13T14:00:27.502Z,97271.88
2023-04-13T14:02:54.550Z,97270.81
2023-04-13T14:05:22.396Z,97280.09
2023-04-13T14:07:49.620Z,97273.31
2023-04-13T14:10:16.908Z,97276.09
2023-04-13T14:12:49.635Z,97280.09
2023-04-13T14:15:17.721Z,97271.78
2023-04-13T14:17:48.396Z,97284.19
2023-04-13T14:20:22.785Z,97284.41
2023-04-13T14:22:49.791Z,97296.19
2023-04-13T14:25:16.685Z,97287.13
2023-04-13T14:27:43.672Z,97303.47
2023-04-13T14:30:10.823Z,97281.19
2023-04-13T14:32:37.757Z,97311.44
2023-04-13T14:35:04.991Z,97316.75
2023-04-13T14:37:31.940Z,97310.56
2023-04-13T14:39:58.853Z,97313.09
2023-04-13T14:42:29.804Z,97309.16
2023-04-13T14:44:56.962Z,97317.44
2023-04-13T14:47:23.907Z,97323.31
2023-04-13T14:49:51.007Z,97322.16
2023-04-13T14:52:18.369Z,97331.84
2023-04-13T14:54:45.265Z,97319.84
2023-04-13T14:57:12.164Z,97327.47
2023-04-13T14:59:39.187Z,97329.69
2023-04-13T15:02:06.868Z,97336.94
2023-04-13T15:04:33.836Z,97335.06
2023-04-13T15:07:00.793Z,97330.91
2023-04-13T15:09:27.645Z,97328.13
2023-04-13T15:11:54.550Z,97334.91
2023-04-13T15:14:21.673Z,97323.81
2023-04-13T15:16:48.609Z,97343.31
2023-04-13T15:19:15.739Z,97345.22
2023-04-13T15:21:42.664Z,97348.22
2023-04-13T15:24:11.878Z,97363.06
2023-04-13T15:26:41.285Z,97360.63
2023-04-13T15:29:09.006Z,97370.50
2023-04-13T15:31:37.484Z,97375.63
2023-04-13T15:34:06.457Z,97381.97
2023-04-13T15:36:33.445Z,97376.22
2023-04-13T15:39:00.809Z,97376.91
2023-04-13T15:41:27.926Z,97382.13
2023-04-13T15:43:56.589Z,97383.53
2023-04-13T15:46:23.551Z,97371.88
2023-04-13T15:48:50.676Z,97379.06
2023-04-13T15:51:17.611Z,97381.97
2023-04-13T15:53:44.553Z,97387.94
2023-04-13T15:56:11.543Z,97389.59
2023-04-13T15:58:38.634Z,97387.31
2023-04-13T16:01:10.213Z,97396.75
2023-04-13T16:03:37.846Z,97390.28
2023-04-13T16:06:04.981Z,97385.53
2023-04-13T16:08:31.855Z,97400.41
2023-04-13T16:10:59.131Z,97393.47
2023-04-13T16:13:34.782Z,97398.38
2023-04-13T16:16:14.828Z,97409.59
2023-04-13T16:18:42.201Z,97409.03
2023-04-13T16:21:11.077Z,97409.91
2023-04-13T16:23:38.464Z,97401.50
2023-04-13T16:26:06.506Z,97410.69
2023-04-13T16:28:34.723Z,97416.47
2023-04-13T16:31:01.805Z,97423.56
2023-04-13T16:33:30.050Z,97428.66
2023-04-13T16:35:56.890Z,97429.50
2023-04-13T16:38:23.742Z,97404.81
2023-04-13T16:40:50.702Z,97435.66
2023-04-13T16:43:17.646Z,97434.06
2023-04-13T16:45:44.596Z,97424.63
2023-04-13T16:48:11.564Z,97438.94
2023-04-13T16:50:38.570Z,97440.91
2023-04-13T16:53:05.438Z,97440.53
2023-04-13T16:55:32.406Z,97444.25
2023-04-13T16:57:59.307Z,97454.50
2023-04-13T17:00:26.835Z,97457.09
2023-04-13T17:02:53.851Z,97454.19
2023-04-13T17:05:20.893Z,97463.16
2023-04-13T17:07:48.377Z,97465.75
2023-04-13T17:10:15.539Z,97469.06
2023-04-13T17:12:42.514Z,97452.09
2023-04-13T17:15:10.173Z,97463.81
2023-04-13T17:17:38.527Z,97475.13
2023-04-13T17:20:06.645Z,97480.38
2023-04-13T17:22:33.623Z,97484.56
2023-04-13T17:25:01.228Z,97482.53
2023-04-13T17:27:28.182Z,97498.50
2023-04-13T17:29:55.130Z,97496.00
2023-04-13T17:32:22.542Z,97499.00
2023-04-13T17:34:50.341Z,97496.91
2023-04-13T17:37:18.093Z,97499.41
2023-04-13T17:39:51.009Z,97498.75
2023-04-13T17:42:18.745Z,97497.09
2023-04-13T17:44:45.848Z,97489.69
2023-04-13T17:47:12.820Z,97500.84
2023-04-13T17:49:41.040Z,97509.38
2023-04-13T17:52:07.935Z,97513.75
2023-04-13T17:54:34.890Z,97509.38
2023-04-13T17:57:02.389Z,97509.66
2023-04-13T17:59:29.350Z,97514.22
2023-04-13T18:01:57.961Z,97518.38
2023-04-13T18:04:25.043Z,97532.44
2023-04-13T18:06:52.168Z,97524.81
2023-04-13T18:09:19.026Z,97528.50
2023-04-13T18:11:45.887Z,97531.16
2023-04-13T18:14:15.376Z,97505.16
2023-04-13T18:16:42.976Z,97524.72
2023-04-13T18:19:10.063Z,97534.09
2023-04-13T18:21:37.369Z,97537.44
2023-04-13T18:24:04.740Z,97530.00
2023-04-13T18:26:31.852Z,97537.50
2023-04-13T18:28:58.834Z,97513.31
2023-04-13T18:31:25.860Z,97535.03
2023-04-13T18:33:52.851Z,97533.38
2023-04-13T18:36:19.775Z,97538.38
2023-04-13T18:38:46.818Z,97537.56
2023-04-13T18:41:41.040Z,97546.66
2023-04-13T18:44:09.391Z,97547.25
2023-04-13T18:46:36.398Z,97545.00
2023-04-13T18:49:03.392Z,97546.22
2023-04-13T18:51:32.188Z,97546.22
2023-04-13T18:53:59.602Z,97547.84
2023-04-13T18:56:26.706Z,97544.16
2023-04-13T18:58:53.681Z,97541.28
2023-04-13T19:01:20.948Z,97545.78
2023-04-13T19:03:49.948Z,97540.66
2023-04-13T19:06:17.295Z,97542.31
2023-04-13T19:08:44.278Z,97547.50
2023-04-13T19:11:11.620Z,97547.94
2023-04-13T19:13:38.578Z,97547.31
2023-04-13T19:16:06.609Z,97540.47
2023-04-13T19:18:34.675Z,97532.84
2023-04-13T19:21:01.638Z,97549.19
2023-04-13T19:23:29.271Z,97548.97
2023-04-13T19:25:56.196Z,97531.78
2023-04-13T19:28:23.120Z,97548.53
2023-04-13T19:30:50.035Z,97524.31
2023-04-13T19:33:16.933Z,97548.72
2023-04-13T19:35:44.027Z,97544.56
2023-04-13T19:38:11.892Z,97546.28
2023-04-13T19:40:38.824Z,97545.84
2023-04-13T19:43:06.053Z,97535.69
2023-04-13T19:45:33.034Z,97540.25
2023-04-13T19:48:00.056Z,97548.69
2023-04-13T19:50:27.099Z,97546.63
2023-04-13T19:52:53.969Z,97547.44
2023-04-13T19:55:21.170Z,97548.28
2023-04-13T19:57:48.740Z,97544.94
2023-04-13T20:00:20.615Z,97546.63
2023-04-13T20:02:50.121Z,97547.84
2023-04-13T20:05:18.889Z,97540.59
2023-04-13T20:07:45.946Z,97543.09
2023-04-13T20:10:13.081Z,97542.47
2023-04-13T20:12:40.108Z,97540.59
2023-04-13T20:15:07.850Z,97542.88
2023-04-13T20:17:34.792Z,97540.00
2023-04-13T20:20:01.932Z,97550.34
2023-04-13T20:22:29.330Z,97540.41
2023-04-13T20:24:56.285Z,97544.56
2023-04-13T20:27:23.269Z,97539.81
2023-04-13T20:29:51.492Z,97540.25
2023-04-13T20:32:18.539Z,97548.28
2023-04-13T20:34:45.481Z,97541.66
2023-04-13T20:37:14.622Z,97548.97
2023-04-13T20:39:50.712Z,97540.69
2023-04-13T20:42:18.607Z,97543.78
2023-04-13T20:44:46.688Z,97538.22
2023-04-13T20:47:14.258Z,97538.00
2023-04-13T20:49:44.017Z,97525.16
2023-04-13T20:52:14.239Z,97535.72
2023-04-13T20:54:41.741Z,97536.97
2023-04-13T20:57:09.498Z,97548.97
2023-04-13T20:59:37.579Z,97539.25
2023-04-13T21:02:05.670Z,97538.00
2023-04-13T21:04:32.771Z,97534.25
2023-04-13T21:07:02.492Z,97541.94
2023-04-13T21:09:30.853Z,97535.09
2023-04-13T21:11:58.244Z,97531.81
2023-04-13T21:14:25.993Z,97533.03
2023-04-13T21:16:53.401Z,97523.09
2023-04-13T21:19:20.842Z,97525.56
2023-04-13T21:21:48.040Z,97535.28
2023-04-13T21:24:15.098Z,97504.88
2023-04-13T21:26:41.967Z,97523.25
2023-04-13T21:29:09.310Z,97526.59
2023-04-13T21:31:36.275Z,97528.41
2023-04-13T21:34:04.148Z,97454.00
2023-04-13T21:39:02.967Z,97512.69
2023-04-13T21:41:30.047Z,97512.69
2023-04-13T21:43:57.050Z,97514.78
2023-04-13T21:46:25.097Z,97523.03
2023-04-13T21:48:52.451Z,97528.00
2023-04-13T21:51:19.325Z,97519.69
2023-04-13T21:53:46.294Z,97522.22
2023-04-13T21:56:13.176Z,97530.69
2023-04-13T21:58:41.487Z,97517.22
2023-04-13T22:01:08.746Z,97522.19
2023-04-13T22:03:40.154Z,97525.91
2023-04-13T22:06:09.230Z,97526.72
2023-04-13T22:08:36.296Z,97528.84
2023-04-13T22:11:03.461Z,97525.31
2023-04-13T22:13:30.797Z,97503.22
2023-04-13T22:15:57.925Z,97528.00
2023-04-13T22:18:25.252Z,97519.28
2023-04-13T22:20:52.251Z,97527.19
2023-04-13T22:23:19.285Z,97529.09
2023-04-13T22:25:53.704Z,97520.56
2023-04-13T22:28:20.720Z,97513.13
2023-04-13T22:30:47.696Z,97511.84
2023-04-13T22:33:15.454Z,97513.13
2023-04-13T22:35:42.352Z,97505.25
2023-04-13T22:38:09.261Z,97509.34
2023-04-13T22:40:39.437Z,97508.53
2023-04-13T22:43:06.719Z,97454.81
2023-04-13T22:45:33.734Z,97509.63
2023-04-13T22:48:00.800Z,97491.81
2023-04-13T22:50:27.794Z,97490.75
2023-04-13T22:52:54.909Z,97489.91
2023-04-13T22:55:22.000Z,97481.25
2023-04-13T22:57:49.027Z,97499.00
2023-04-13T23:00:16.144Z,97478.75
2023-04-13T23:02:43.314Z,97493.38
2023-04-13T23:05:10.399Z,97478.28
2023-04-13T23:07:37.379Z,97475.59
2023-04-13T23:10:04.960Z,97474.53
2023-04-13T23:12:31.892Z,97471.84
2023-04-13T23:14:58.808Z,97470.81
2023-04-13T23:17:25.982Z,97466.31
2023-04-13T23:19:56.383Z,97467.53
2023-04-13T23:22:23.468Z,97464.00
2023-04-13T23:24:50.445Z,97465.47
2023-04-13T23:27:18.503Z,97468.38
2023-04-13T23:29:49.780Z,97468.63
2023-04-13T23:32:16.719Z,97448.16
2023-04-13T23:34:43.993Z,97459.31
2023-04-13T23:37:11.068Z,97455.16
2023-04-13T23:39:38.266Z,97463.81
2023-04-13T23:42:05.312Z,97459.06
2023-04-13T23:44:32.282Z,97453.47
2023-04-13T23:46:59.515Z,97451.59
2023-04-13T23:49:26.746Z,97453.47
2023-04-13T23:51:53.725Z,97448.88
2023-04-13T23:54:20.887Z,97439.19
2023-04-13T23:56:47.756Z,97429.09
2023-04-13T23:59:14.670Z,97427.63
